Terminal Aerodrome Forecast
Issued by NWS Twin Cities, MN

Home | Current Version | Previous Version | Text Only | Print | Product List | Glossary On
Versions: 1 2 3 4 5 6 7 8 9 10 11 12 13
585
FTUS43 KMPX 181120
TAFEAU
TAF
KEAU 181120Z 1812/1912 18008KT P6SM SKC
     FM181600 20015G23KT P6SM FEW250
     FM182100 23011KT P6SM SKC
     FM190000 24005KT P6SM SKC=

USA.gov is the U.S. government's official web portal to all federal, state and local government web resources and services.